Terminal Aerodrome Forecast
Issued by NWS

Home | Current Version | Previous Version | Text Only | Print | Product List | Glossary On
Versions: 1 2 3 4 5 6 7 8 9 10 11 12 13 14 15 16 17
000
FTUS44 KBMX 171618 AAB
TAFTCL
TAF AMD
KTCL 171618Z 1716/1812 20010KT P6SM BKN020 OVC025
     FM172200 20010KT P6SM VCSH BKN020 OVC040
     FM180100 20010KT P6SM SHRA VCTS SCT015CB OVC025
     FM180600 20004KT 4SM BR OVC007
     FM180900 23005KT 4SM BR OVC004=

USA.gov is the U.S. government's official web portal to all federal, state and local government web resources and services.